createdAt,value
2023-05-12T00:00:16.569Z,10.79
2023-05-12T00:01:17.117Z,10.74
2023-05-12T00:02:16.763Z,10.81
2023-05-12T00:03:16.419Z,10.75
2023-05-12T00:04:17.235Z,10.74
2023-05-12T00:05:16.891Z,10.74
2023-05-12T00:06:16.445Z,10.74
2023-05-12T00:07:17.004Z,10.76
2023-05-12T00:08:16.592Z,10.78
2023-05-12T00:09:17.197Z,10.79
2023-05-12T00:10:16.770Z,10.78
2023-05-12T00:11:16.408Z,10.76
2023-05-12T00:12:17.155Z,10.76
2023-05-12T00:13:16.706Z,10.79
2023-05-12T00:14:16.325Z,10.76
2023-05-12T00:15:16.881Z,10.81
2023-05-12T00:16:16.468Z,10.79
2023-05-12T00:17:17.130Z,10.79
2023-05-12T00:18:16.700Z,10.78
2023-05-12T00:19:16.372Z,10.78
2023-05-12T00:20:17.095Z,10.78
2023-05-12T00:21:17.002Z,10.78
2023-05-12T00:22:17.275Z,10.75
2023-05-12T00:23:16.833Z,10.76
2023-05-12T00:24:16.391Z,10.70
2023-05-12T00:25:16.972Z,10.70
2023-05-12T00:26:16.520Z,10.70
2023-05-12T00:27:17.088Z,10.72
2023-05-12T00:28:16.649Z,10.74
2023-05-12T00:29:17.207Z,10.74
2023-05-12T00:30:16.886Z,10.71
2023-05-12T00:31:16.648Z,10.70
2023-05-12T00:32:16.597Z,10.71
2023-05-12T00:33:17.159Z,10.70
2023-05-12T00:34:16.719Z,10.68
2023-05-12T00:35:17.270Z,10.67
2023-05-12T00:36:16.835Z,10.65
2023-05-12T00:37:16.368Z,10.65
2023-05-12T00:38:16.912Z,10.68
2023-05-12T00:39:16.454Z,10.70
2023-05-12T00:40:17.142Z,10.71
2023-05-12T00:41:17.073Z,10.71
2023-05-12T00:42:17.081Z,10.71
2023-05-12T00:43:16.640Z,10.71
2023-05-12T00:44:17.270Z,10.74
2023-05-12T00:45:16.845Z,10.70
2023-05-12T00:46:16.434Z,10.72
2023-05-12T00:47:17.065Z,10.72
2023-05-12T00:48:16.624Z,10.68
2023-05-12T00:49:17.157Z,10.72
2023-05-12T00:50:16.767Z,10.70
2023-05-12T00:51:16.572Z,10.72
2023-05-12T00:52:17.044Z,10.71
2023-05-12T00:53:16.566Z,10.71
2023-05-12T00:54:17.108Z,10.71
2023-05-12T00:55:16.718Z,10.71
2023-05-12T00:56:17.322Z,10.72
2023-05-12T00:57:16.862Z,10.72
2023-05-12T00:58:16.445Z,10.72
2023-05-12T00:59:16.995Z,10.70
2023-05-12T01:00:16.569Z,10.68
2023-05-12T01:01:17.282Z,10.70
2023-05-12T01:02:17.020Z,10.70
2023-05-12T01:03:16.729Z,10.71
2023-05-12T01:04:16.404Z,10.71
2023-05-12T01:05:16.949Z,10.71
2023-05-12T01:06:16.516Z,10.68
2023-05-12T01:07:17.055Z,10.72
2023-05-12T01:08:16.552Z,10.74
2023-05-12T01:09:17.161Z,10.72
2023-05-12T01:10:16.815Z,10.74
2023-05-12T01:11:16.558Z,10.71
2023-05-12T01:12:17.306Z,10.70
2023-05-12T01:13:16.912Z,10.72
2023-05-12T01:14:16.558Z,10.72
2023-05-12T01:15:17.175Z,10.75
2023-05-12T01:16:16.704Z,10.68
2023-05-12T01:17:17.327Z,10.67
2023-05-12T01:18:17.023Z,10.67
2023-05-12T01:19:16.733Z,10.64
2023-05-12T01:20:16.456Z,10.65
2023-05-12T01:21:17.217Z,10.61
2023-05-12T01:22:16.673Z,10.57
2023-05-12T01:23:17.248Z,10.57
2023-05-12T01:24:16.845Z,10.57
2023-05-12T01:25:16.396Z,10.58
2023-05-12T01:26:16.970Z,10.55
2023-05-12T01:27:16.538Z,10.52
2023-05-12T01:28:17.078Z,10.54
2023-05-12T01:29:16.647Z,10.52
2023-05-12T01:30:17.207Z,10.52
2023-05-12T01:31:18.913Z,10.55
2023-05-12T01:32:16.607Z,10.52
2023-05-12T01:33:17.162Z,10.55
2023-05-12T01:34:16.728Z,10.55
2023-05-12T01:35:17.291Z,10.52
2023-05-12T01:36:16.852Z,10.52
2023-05-12T01:37:16.462Z,10.51
2023-05-12T01:38:17.053Z,10.54
2023-05-12T01:39:16.615Z,10.55
2023-05-12T01:40:17.244Z,10.57
2023-05-12T01:41:17.139Z,10.60
2023-05-12T01:42:16.560Z,10.60
2023-05-12T01:43:17.116Z,10.60
2023-05-12T01:44:16.682Z,10.62
2023-05-12T01:45:17.259Z,10.64
2023-05-12T01:46:16.839Z,10.65
2023-05-12T01:47:16.437Z,10.65
2023-05-12T01:48:16.974Z,10.67
2023-05-12T01:49:16.521Z,10.68
2023-05-12T01:50:17.115Z,10.71
2023-05-12T01:51:16.769Z,10.68
2023-05-12T01:52:16.543Z,10.68
2023-05-12T01:53:17.107Z,10.71
2023-05-12T01:54:16.649Z,10.74
2023-05-12T01:55:17.175Z,10.76
2023-05-12T01:56:16.732Z,10.75
2023-05-12T01:57:17.260Z,10.72
2023-05-12T01:58:16.808Z,10.74
2023-05-12T01:59:16.393Z,10.72
2023-05-12T02:00:17.073Z,10.72
2023-05-12T02:01:16.805Z,10.74
2023-05-12T02:02:17.159Z,10.74
2023-05-12T02:03:16.941Z,10.75
2023-05-12T02:04:16.614Z,10.76
2023-05-12T02:05:17.317Z,10.76
2023-05-12T02:06:16.896Z,10.74
2023-05-12T02:07:16.428Z,10.74
2023-05-12T02:08:16.949Z,10.76
2023-05-12T02:09:16.504Z,10.86
2023-05-12T02:10:17.126Z,10.88
2023-05-12T02:11:16.952Z,10.85
2023-05-12T02:12:16.310Z,10.85
2023-05-12T02:13:16.884Z,10.83
2023-05-12T02:14:16.460Z,10.86
2023-05-12T02:15:17.021Z,10.85
2023-05-12T02:16:16.625Z,10.86
2023-05-12T02:17:17.319Z,10.90
2023-05-12T02:18:16.914Z,10.92
2023-05-12T02:19:16.461Z,10.88
2023-05-12T02:20:17.108Z,10.88
2023-05-12T02:21:17.032Z,10.86
2023-05-12T02:22:16.874Z,10.88
2023-05-12T02:23:16.440Z,10.86
2023-05-12T02:24:17.090Z,10.88
2023-05-12T02:25:16.688Z,10.90
2023-05-12T02:26:17.216Z,10.92
2023-05-12T02:27:16.816Z,10.92
2023-05-12T02:28:16.391Z,10.93
2023-05-12T02:29:16.921Z,10.92
2023-05-12T02:30:16.527Z,10.93
2023-05-12T02:31:17.111Z,10.93
2023-05-12T02:32:17.293Z,10.95
2023-05-12T02:33:16.867Z,10.93
2023-05-12T02:34:16.447Z,10.93
2023-05-12T02:35:17.056Z,10.96
2023-05-12T02:36:16.601Z,10.95
2023-05-12T02:37:17.166Z,10.90
2023-05-12T02:38:16.731Z,10.90
2023-05-12T02:39:17.297Z,10.92
2023-05-12T02:40:16.934Z,10.92
2023-05-12T02:41:16.629Z,10.90
2023-05-12T02:42:16.455Z,10.90
2023-05-12T02:43:17.002Z,10.90
2023-05-12T02:44:16.598Z,10.92
2023-05-12T02:45:17.164Z,10.93
2023-05-12T02:46:16.750Z,10.95
2023-05-12T02:47:16.334Z,10.95
2023-05-12T02:48:16.908Z,10.98
2023-05-12T02:49:16.507Z,10.99
2023-05-12T02:50:17.106Z,10.96
2023-05-12T02:51:16.800Z,10.98
2023-05-12T02:52:16.375Z,10.96
2023-05-12T02:53:16.939Z,10.95
2023-05-12T02:54:16.488Z,10.96
2023-05-12T02:55:17.049Z,10.95
2023-05-12T02:56:16.603Z,10.96
2023-05-12T02:57:17.135Z,10.98
2023-05-12T02:58:16.690Z,10.99
2023-05-12T02:59:17.275Z,11.00
2023-05-12T03:00:16.818Z,11.00
2023-05-12T03:01:16.485Z,11.02
2023-05-12T03:02:16.535Z,11.02
2023-05-12T03:03:17.248Z,11.00
2023-05-12T03:04:17.053Z,10.99
2023-05-12T03:05:16.587Z,11.02
2023-05-12T03:06:17.127Z,11.03
2023-05-12T03:07:16.633Z,11.03
2023-05-12T03:08:17.185Z,10.99
2023-05-12T03:09:16.745Z,11.00
2023-05-12T03:10:17.307Z,10.98
2023-05-12T03:11:17.008Z,10.93
2023-05-12T03:12:16.786Z,10.93
2023-05-12T03:13:16.348Z,10.93
2023-05-12T03:14:16.941Z,10.89
2023-05-12T03:15:16.533Z,10.88
2023-05-12T03:16:18.888Z,10.89
2023-05-12T03:17:16.425Z,10.89
2023-05-12T03:18:17.023Z,10.92
2023-05-12T03:19:16.608Z,10.93
2023-05-12T03:20:17.282Z,10.90
2023-05-12T03:21:17.242Z,10.92
2023-05-12T03:22:16.477Z,10.95
2023-05-12T03:23:17.031Z,10.92
2023-05-12T03:24:16.586Z,10.92
2023-05-12T03:25:17.200Z,10.90
2023-05-12T03:26:16.745Z,10.93
2023-05-12T03:27:17.268Z,10.95
2023-05-12T03:28:16.796Z,10.90
2023-05-12T03:29:16.364Z,10.96
2023-05-12T03:30:16.972Z,10.98
2023-05-12T03:31:16.695Z,10.92
2023-05-12T03:32:17.250Z,10.89
2023-05-12T03:33:16.787Z,10.89
2023-05-12T03:34:16.372Z,10.90
2023-05-12T03:35:16.937Z,10.88
2023-05-12T03:36:16.474Z,10.92
2023-05-12T03:37:17.076Z,10.89
2023-05-12T03:38:16.650Z,10.89
2023-05-12T03:39:17.249Z,10.88
2023-05-12T03:40:16.801Z,10.86
2023-05-12T03:41:16.392Z,10.82
2023-05-12T03:42:17.123Z,10.85
2023-05-12T03:43:16.680Z,10.88
2023-05-12T03:44:17.253Z,10.86
2023-05-12T03:45:16.810Z,10.82
2023-05-12T03:46:16.391Z,10.82
2023-05-12T03:47:17.140Z,10.83
2023-05-12T03:48:16.927Z,10.81
2023-05-12T03:49:16.635Z,10.79
2023-05-12T03:50:17.239Z,10.81
2023-05-12T03:51:17.105Z,10.79
2023-05-12T03:52:16.490Z,10.78
2023-05-12T03:53:17.037Z,10.81
2023-05-12T03:54:16.599Z,10.83
2023-05-12T03:55:17.168Z,10.79
2023-05-12T03:56:16.746Z,10.79
2023-05-12T03:57:16.323Z,10.81
2023-05-12T03:58:16.878Z,10.81
2023-05-12T03:59:16.427Z,10.85
2023-05-12T04:00:17.010Z,10.83
2023-05-12T04:01:16.727Z,10.76
2023-05-12T04:02:17.046Z,10.76
2023-05-12T04:03:16.746Z,10.74
2023-05-12T04:04:16.679Z,10.74
2023-05-12T04:05:16.475Z,10.75
2023-05-12T04:06:17.020Z,10.75
2023-05-12T04:07:16.582Z,10.72
2023-05-12T04:08:17.270Z,10.72
2023-05-12T04:09:16.842Z,10.74
2023-05-12T04:10:16.393Z,10.72
2023-05-12T04:11:16.915Z,10.71
2023-05-12T04:12:17.086Z,10.67
2023-05-12T04:13:16.649Z,10.71
2023-05-12T04:14:17.211Z,10.67
2023-05-12T04:15:16.764Z,10.67
2023-05-12T04:16:16.361Z,10.65
2023-05-12T04:17:16.984Z,10.68
2023-05-12T04:18:16.554Z,10.70
2023-05-12T04:19:17.121Z,10.70
2023-05-12T04:20:16.672Z,10.67
2023-05-12T04:21:17.314Z,10.65
2023-05-12T04:22:17.232Z,10.64
2023-05-12T04:23:16.788Z,10.71
2023-05-12T04:24:16.367Z,10.68
2023-05-12T04:25:16.902Z,10.68
2023-05-12T04:26:16.461Z,10.68
2023-05-12T04:27:17.028Z,10.64
2023-05-12T04:28:16.578Z,10.60
2023-05-12T04:29:17.174Z,10.64
2023-05-12T04:30:16.735Z,10.64
2023-05-12T04:31:17.308Z,10.60
2023-05-12T04:32:16.876Z,10.61
2023-05-12T04:33:16.580Z,10.61
2023-05-12T04:34:17.141Z,10.61
2023-05-12T04:35:16.722Z,10.60
2023-05-12T04:36:17.308Z,10.62
2023-05-12T04:37:16.860Z,10.61
2023-05-12T04:38:16.401Z,10.61
2023-05-12T04:39:16.980Z,10.61
2023-05-12T04:40:16.559Z,10.64
2023-05-12T04:41:17.123Z,10.62
2023-05-12T04:42:16.865Z,10.68
2023-05-12T04:44:16.959Z,10.68
2023-05-12T04:45:16.528Z,10.70
2023-05-12T04:46:17.184Z,10.71
2023-05-12T04:47:16.892Z,10.70
2023-05-12T04:48:16.465Z,10.70
2023-05-12T04:49:16.993Z,10.68
2023-05-12T04:50:16.562Z,10.71
2023-05-12T04:51:17.144Z,10.72
2023-05-12T04:52:17.238Z,10.72
2023-05-12T04:53:16.817Z,10.75
2023-05-12T04:54:16.378Z,10.78
2023-05-12T04:55:16.944Z,10.78
2023-05-12T04:56:16.633Z,10.78
2023-05-12T04:57:17.235Z,10.82
2023-05-12T04:58:16.799Z,10.82
2023-05-12T04:59:16.423Z,10.86
2023-05-12T05:00:16.995Z,10.90
2023-05-12T05:01:16.597Z,10.93
2023-05-12T05:02:16.581Z,10.96
2023-05-12T05:03:17.217Z,10.99
2023-05-12T05:04:17.014Z,11.03
2023-05-12T05:05:16.571Z,11.07
2023-05-12T05:06:17.149Z,11.10
2023-05-12T05:07:16.699Z,11.13
2023-05-12T05:08:17.245Z,11.14
2023-05-12T05:09:16.787Z,11.14
2023-05-12T05:10:16.385Z,11.16
2023-05-12T05:11:16.973Z,11.24
2023-05-12T05:12:16.660Z,11.21
2023-05-12T05:13:17.251Z,11.24
2023-05-12T05:14:16.806Z,11.30
2023-05-12T05:15:16.349Z,11.33
2023-05-12T05:16:16.920Z,11.31
2023-05-12T05:17:16.505Z,11.31
2023-05-12T05:18:17.053Z,11.34
2023-05-12T05:19:22.491Z,11.38
2023-05-12T05:20:16.980Z,11.37
2023-05-12T05:21:16.686Z,11.37
2023-05-12T05:22:16.907Z,11.41
2023-05-12T05:23:16.563Z,11.41
2023-05-12T05:24:17.136Z,11.44
2023-05-12T05:25:16.729Z,11.44
2023-05-12T05:26:16.424Z,11.47
2023-05-12T05:27:16.991Z,11.47
2023-05-12T05:28:16.550Z,11.45
2023-05-12T05:29:17.071Z,11.41
2023-05-12T05:30:16.655Z,11.47
2023-05-12T05:31:17.287Z,11.47
2023-05-12T05:32:16.694Z,11.51
2023-05-12T05:33:17.269Z,11.58
2023-05-12T05:34:16.960Z,11.55
2023-05-12T05:35:16.642Z,11.59
2023-05-12T05:36:17.247Z,11.50
2023-05-12T05:37:16.803Z,11.47
2023-05-12T05:38:16.370Z,11.50
2023-05-12T05:39:16.952Z,11.57
2023-05-12T05:40:16.529Z,11.57
2023-05-12T05:41:17.073Z,11.52
2023-05-12T05:42:17.070Z,11.55
2023-05-12T05:43:16.614Z,11.57
2023-05-12T05:44:17.238Z,11.57
2023-05-12T05:45:16.849Z,11.66
2023-05-12T05:46:16.479Z,11.64
2023-05-12T05:47:17.051Z,11.66
2023-05-12T05:48:16.589Z,11.65
2023-05-12T05:49:17.231Z,11.68
2023-05-12T05:50:16.788Z,11.69
2023-05-12T05:51:16.348Z,11.65
2023-05-12T05:52:17.123Z,11.65
2023-05-12T05:53:16.700Z,11.64
2023-05-12T05:54:16.433Z,11.65
2023-05-12T05:55:17.077Z,11.68
2023-05-12T05:56:16.857Z,11.64
2023-05-12T05:57:16.404Z,11.68
2023-05-12T05:58:16.938Z,11.76
2023-05-12T05:59:16.470Z,11.79
2023-05-12T06:00:17.038Z,11.68
2023-05-12T06:01:16.612Z,11.66
2023-05-12T06:02:17.182Z,11.65
2023-05-12T06:03:16.987Z,11.58
2023-05-12T06:04:16.804Z,11.65
2023-05-12T06:05:16.489Z,11.71
2023-05-12T06:06:17.078Z,11.79
2023-05-12T06:07:16.647Z,11.79
2023-05-12T06:08:17.192Z,11.71
2023-05-12T06:09:16.775Z,11.72
2023-05-12T06:10:16.357Z,11.73
2023-05-12T06:11:17.826Z,11.78
2023-05-12T06:12:16.579Z,11.73
2023-05-12T06:13:17.128Z,11.79
2023-05-12T06:14:16.714Z,11.71
2023-05-12T06:15:17.281Z,11.68
2023-05-12T06:16:16.910Z,11.72
2023-05-12T06:17:16.588Z,11.72
2023-05-12T06:18:17.160Z,11.66
2023-05-12T06:19:16.768Z,11.72
2023-05-12T06:20:16.338Z,11.72
2023-05-12T06:21:16.886Z,11.64
2023-05-12T06:22:17.101Z,11.71
2023-05-12T06:23:16.664Z,11.76
2023-05-12T06:24:17.245Z,11.80
2023-05-12T06:25:16.755Z,11.72
2023-05-12T06:26:17.307Z,11.73
2023-05-12T06:27:16.859Z,11.79
2023-05-12T06:28:16.419Z,11.83
2023-05-12T06:29:16.984Z,11.83
2023-05-12T06:30:16.633Z,11.82
2023-05-12T06:31:17.295Z,11.86
2023-05-12T06:32:17.064Z,11.80
2023-05-12T06:33:16.717Z,11.73
2023-05-12T06:34:17.366Z,11.75
2023-05-12T06:35:16.951Z,11.90
2023-05-12T06:36:16.638Z,11.86
2023-05-12T06:37:17.190Z,11.86
2023-05-12T06:38:16.780Z,11.89
2023-05-12T06:39:16.336Z,11.99
2023-05-12T06:40:16.894Z,12.03
2023-05-12T06:41:16.488Z,12.08
2023-05-12T06:42:16.373Z,12.13
2023-05-12T06:43:16.928Z,12.13
2023-05-12T06:44:16.483Z,12.20
2023-05-12T06:45:17.114Z,12.12
2023-05-12T06:46:16.859Z,12.08
2023-05-12T06:47:16.548Z,12.00
2023-05-12T06:48:17.099Z,12.10
2023-05-12T06:49:16.666Z,12.10
2023-05-12T06:50:17.269Z,12.14
2023-05-12T06:51:16.839Z,12.19
2023-05-12T06:52:17.249Z,12.21
2023-05-12T06:53:16.876Z,12.24
2023-05-12T06:54:16.487Z,12.20
2023-05-12T06:55:17.109Z,12.04
2023-05-12T06:56:16.738Z,12.12
2023-05-12T06:57:17.320Z,12.06
2023-05-12T06:58:16.879Z,12.08
2023-05-12T06:59:16.461Z,12.08
2023-05-12T07:00:17.017Z,12.13
2023-05-12T07:01:16.642Z,12.19
2023-05-12T07:02:16.340Z,12.24
2023-05-12T07:03:16.966Z,12.25
2023-05-12T07:04:16.933Z,12.20
2023-05-12T07:05:16.521Z,12.30
2023-05-12T07:06:17.106Z,12.37
2023-05-12T07:07:16.732Z,12.19
2023-05-12T07:08:17.280Z,12.34
2023-05-12T07:09:16.847Z,12.31
2023-05-12T07:10:16.422Z,12.28
2023-05-12T07:11:16.975Z,12.40
2023-05-12T07:12:16.967Z,12.48
2023-05-12T07:13:16.525Z,12.40
2023-05-12T07:14:17.084Z,12.40
2023-05-12T07:15:16.647Z,12.40
2023-05-12T07:16:17.212Z,12.47
2023-05-12T07:17:16.864Z,12.47
2023-05-12T07:18:16.417Z,12.38
2023-05-12T07:19:16.983Z,12.45
2023-05-12T07:20:16.557Z,12.38
2023-05-12T07:21:17.124Z,12.56
2023-05-12T07:22:16.846Z,12.68
2023-05-12T07:23:16.950Z,12.49
2023-05-12T07:24:16.597Z,12.55
2023-05-12T07:25:17.226Z,12.53
2023-05-12T07:26:16.984Z,12.48
2023-05-12T07:27:16.531Z,12.63
2023-05-12T07:28:17.089Z,12.79
2023-05-12T07:29:16.679Z,12.82
2023-05-12T07:30:17.249Z,12.66
2023-05-12T07:31:17.024Z,12.73
2023-05-12T07:32:16.557Z,12.75
2023-05-12T07:33:17.135Z,12.82
2023-05-12T07:34:16.722Z,12.69
2023-05-12T07:35:17.423Z,12.75
2023-05-12T07:36:17.100Z,12.76
2023-05-12T07:37:16.643Z,12.76
2023-05-12T07:38:17.248Z,12.94
2023-05-12T07:39:16.776Z,13.02
2023-05-12T07:40:16.330Z,12.96
2023-05-12T07:41:16.887Z,12.97
2023-05-12T07:42:16.835Z,13.02
2023-05-12T07:43:16.372Z,13.10
2023-05-12T07:44:16.929Z,13.22
2023-05-12T07:45:16.518Z,13.20
2023-05-12T07:46:17.116Z,13.13
2023-05-12T07:47:16.749Z,13.02
2023-05-12T07:48:16.595Z,13.03
2023-05-12T07:49:17.276Z,13.03
2023-05-12T07:50:16.847Z,12.93
2023-05-12T07:51:16.396Z,12.94
2023-05-12T07:52:16.705Z,12.99
2023-05-12T07:53:17.286Z,12.97
2023-05-12T07:54:16.831Z,12.96
2023-05-12T07:55:16.398Z,12.97
2023-05-12T07:56:17.009Z,12.99
2023-05-12T07:57:16.566Z,12.97
2023-05-12T07:58:17.137Z,13.03
2023-05-12T07:59:16.717Z,13.03
2023-05-12T08:00:17.309Z,12.97
2023-05-12T08:01:16.902Z,12.90
2023-05-12T08:02:17.071Z,12.77
2023-05-12T08:03:16.932Z,12.82
2023-05-12T08:04:16.742Z,12.88
2023-05-12T08:05:16.346Z,12.86
2023-05-12T08:06:16.913Z,12.63
2023-05-12T08:07:16.473Z,12.75
2023-05-12T08:08:17.079Z,12.72
2023-05-12T08:09:16.692Z,12.70
2023-05-12T08:10:17.244Z,12.69
2023-05-12T08:11:16.794Z,12.68
2023-05-12T08:12:16.700Z,12.73
2023-05-12T08:13:17.265Z,12.73
2023-05-12T08:14:16.832Z,12.73
2023-05-12T08:15:16.383Z,12.82
2023-05-12T08:16:16.962Z,12.90
2023-05-12T08:17:16.668Z,12.96
2023-05-12T08:18:16.433Z,12.97
2023-05-12T08:19:17.085Z,13.00
2023-05-12T08:20:16.671Z,13.00
2023-05-12T08:21:17.204Z,13.06
2023-05-12T08:22:17.245Z,12.77
2023-05-12T08:23:16.790Z,12.93
2023-05-12T08:24:16.380Z,12.97
2023-05-12T08:25:16.953Z,13.11
2023-05-12T08:26:16.503Z,13.30
2023-05-12T08:27:17.071Z,13.35
2023-05-12T08:28:16.629Z,13.20
2023-05-12T08:29:17.232Z,13.21
2023-05-12T08:30:16.795Z,13.17
2023-05-12T08:31:16.453Z,13.08
2023-05-12T08:32:17.243Z,12.99
2023-05-12T08:33:16.785Z,12.97
2023-05-12T08:34:16.361Z,13.02
2023-05-12T08:35:16.925Z,12.97
2023-05-12T08:36:16.500Z,13.06
2023-05-12T08:37:17.070Z,13.13
2023-05-12T08:38:16.642Z,13.20
2023-05-12T08:39:17.273Z,13.34
2023-05-12T08:40:16.844Z,13.30
2023-05-12T08:41:16.393Z,13.27
2023-05-12T08:42:17.098Z,13.38
2023-05-12T08:43:16.652Z,13.38
2023-05-12T08:44:17.220Z,13.43
2023-05-12T08:45:16.792Z,13.48
2023-05-12T08:46:16.447Z,13.52
2023-05-12T08:47:17.043Z,13.56
2023-05-12T08:48:16.867Z,13.60
2023-05-12T08:49:16.558Z,13.53
2023-05-12T08:50:17.142Z,13.48
2023-05-12T08:51:16.693Z,13.55
2023-05-12T08:52:17.092Z,13.52
2023-05-12T08:53:16.646Z,13.32
2023-05-12T08:54:17.245Z,13.55
2023-05-12T08:55:16.805Z,13.59
2023-05-12T08:57:16.870Z,13.73
2023-05-12T08:58:16.446Z,13.76
2023-05-12T08:59:17.015Z,13.63
2023-05-12T09:00:16.566Z,13.58
2023-05-12T09:01:17.188Z,13.69
2023-05-12T09:02:17.159Z,13.73
2023-05-12T09:03:16.890Z,13.66
2023-05-12T09:04:16.545Z,13.52
2023-05-12T09:05:17.232Z,13.58
2023-05-12T09:06:17.239Z,13.49
2023-05-12T09:07:16.795Z,13.58
2023-05-12T09:08:16.364Z,13.84
2023-05-12T09:09:16.926Z,14.04
2023-05-12T09:10:26.304Z,14.07
2023-05-12T09:11:16.426Z,14.11
2023-05-12T09:12:17.065Z,14.10
2023-05-12T09:13:16.620Z,14.12
2023-05-12T09:14:17.209Z,14.24
2023-05-12T09:15:16.794Z,14.11
2023-05-12T09:16:16.413Z,14.05
2023-05-12T09:17:17.099Z,13.94
2023-05-12T09:18:16.674Z,13.83
2023-05-12T09:19:17.359Z,13.77
2023-05-12T09:20:30.304Z,13.80
2023-05-12T09:21:16.408Z,13.89
2023-05-12T09:22:16.697Z,13.66
2023-05-12T09:23:17.232Z,13.62
2023-05-12T09:24:16.768Z,13.43
2023-05-12T09:25:16.346Z,13.27
2023-05-12T09:26:16.953Z,13.32
2023-05-12T09:27:16.540Z,13.34
2023-05-12T09:28:17.076Z,13.28
2023-05-12T09:29:24.235Z,13.24
2023-05-12T09:30:16.513Z,13.38
2023-05-12T09:31:17.104Z,13.53
2023-05-12T09:32:16.995Z,13.56
2023-05-12T09:33:16.559Z,13.53
2023-05-12T09:34:17.168Z,13.45
2023-05-12T09:35:16.708Z,13.75
2023-05-12T09:36:17.261Z,13.84
2023-05-12T09:37:16.794Z,13.93
2023-05-12T09:38:16.337Z,13.96
2023-05-12T09:39:16.902Z,13.97
2023-05-12T09:40:16.496Z,14.11
2023-05-12T09:41:17.062Z,14.20
2023-05-12T09:42:17.122Z,14.00
2023-05-12T09:43:16.695Z,13.80
2023-05-12T09:44:17.353Z,13.83
2023-05-12T09:45:16.889Z,13.79
2023-05-12T09:46:16.513Z,13.86
2023-05-12T09:47:17.109Z,14.03
2023-05-12T09:48:16.654Z,13.94
2023-05-12T09:49:17.212Z,14.12
2023-05-12T09:50:16.786Z,14.25
2023-05-12T09:51:16.357Z,14.53
2023-05-12T09:52:17.299Z,14.59
2023-05-12T09:53:16.885Z,14.48
2023-05-12T09:54:16.466Z,14.48
2023-05-12T09:55:17.034Z,14.51
2023-05-12T09:56:16.617Z,14.63
2023-05-12T09:57:17.170Z,14.55
2023-05-12T09:58:16.753Z,14.52
2023-05-12T09:59:16.325Z,14.53
2023-05-12T10:00:30.151Z,14.86
2023-05-12T10:01:22.485Z,14.94
2023-05-12T10:02:16.613Z,15.00
2023-05-12T10:03:17.169Z,15.01
2023-05-12T10:04:16.866Z,14.82
2023-05-12T10:05:16.708Z,14.87
2023-05-12T10:06:17.286Z,15.05
2023-05-12T10:07:16.858Z,15.14
2023-05-12T10:08:16.409Z,15.21
2023-05-12T10:09:16.971Z,15.29
2023-05-12T10:10:16.553Z,15.17
2023-05-12T10:11:17.181Z,14.98
2023-05-12T10:12:16.936Z,14.63
2023-05-12T10:13:16.492Z,14.90
2023-05-12T10:14:17.060Z,15.00
2023-05-12T10:15:16.615Z,15.18
2023-05-12T10:16:17.177Z,14.90
2023-05-12T10:17:16.768Z,14.76
2023-05-12T10:18:16.325Z,14.72
2023-05-12T10:19:16.925Z,14.74
2023-05-12T10:20:16.563Z,15.11
2023-05-12T10:21:17.246Z,15.19
2023-05-12T10:22:16.974Z,14.73
2023-05-12T10:23:16.559Z,15.04
2023-05-12T10:24:17.194Z,14.91
2023-05-12T10:25:16.841Z,15.07
2023-05-12T10:26:16.428Z,15.07
2023-05-12T10:27:17.028Z,15.08
2023-05-12T10:28:16.772Z,15.00
2023-05-12T10:29:16.321Z,14.73
2023-05-12T10:30:16.919Z,14.80
2023-05-12T10:31:16.668Z,14.80
2023-05-12T10:32:17.135Z,14.83
2023-05-12T10:33:16.686Z,14.55
2023-05-12T10:34:17.279Z,14.21
2023-05-12T10:35:16.856Z,14.33
2023-05-12T10:36:16.393Z,14.14
2023-05-12T10:37:16.961Z,14.20
2023-05-12T10:38:16.519Z,14.25
2023-05-12T10:39:17.091Z,14.15
2023-05-12T10:40:16.731Z,14.15
2023-05-12T10:41:17.336Z,14.32
2023-05-12T10:42:17.160Z,14.25
2023-05-12T10:43:16.720Z,14.31
2023-05-12T10:44:17.361Z,14.36
2023-05-12T10:45:16.926Z,14.45
2023-05-12T10:46:16.702Z,14.45
2023-05-12T10:47:17.317Z,14.35
2023-05-12T10:48:16.877Z,14.31
2023-05-12T10:49:16.462Z,14.24
2023-05-12T10:50:17.031Z,14.27
2023-05-12T10:51:16.606Z,14.20
2023-05-12T10:52:16.501Z,14.20
2023-05-12T10:53:17.073Z,14.18
2023-05-12T10:54:16.681Z,14.33
2023-05-12T10:55:17.310Z,14.36
2023-05-12T10:56:17.270Z,14.32
2023-05-12T10:57:18.497Z,14.28
2023-05-12T10:58:17.250Z,14.35
2023-05-12T10:59:17.188Z,14.29
2023-05-12T11:00:17.266Z,14.27
2023-05-12T11:01:17.197Z,14.29
2023-05-12T11:02:17.304Z,14.18
2023-05-12T11:03:17.529Z,14.08
2023-05-12T11:04:16.876Z,14.03
2023-05-12T11:05:17.236Z,14.03
2023-05-12T11:06:17.103Z,14.01
2023-05-12T11:07:17.788Z,14.03
2023-05-12T11:08:17.596Z,14.14
2023-05-12T11:09:17.540Z,14.29
2023-05-12T11:10:17.645Z,14.35
2023-05-12T11:11:17.398Z,14.49
2023-05-12T11:12:16.386Z,14.53
2023-05-12T11:13:16.969Z,14.52
2023-05-12T11:14:16.537Z,14.25
2023-05-12T11:15:18.011Z,14.31
2023-05-12T11:16:16.971Z,14.31
2023-05-12T11:17:16.613Z,14.32
2023-05-12T11:18:17.222Z,14.25
2023-05-12T11:19:16.882Z,14.20
2023-05-12T11:20:16.420Z,14.27
2023-05-12T11:21:16.972Z,14.29
2023-05-12T11:22:16.747Z,14.35
2023-05-12T11:23:17.311Z,14.31
2023-05-12T11:24:16.874Z,14.40
2023-05-12T11:25:16.448Z,14.42
2023-05-12T11:26:17.126Z,14.45
2023-05-12T11:27:16.732Z,14.63
2023-05-12T11:28:17.322Z,14.72
2023-05-12T11:29:16.921Z,14.60
2023-05-12T11:30:16.489Z,14.63
2023-05-12T11:31:17.057Z,14.40
2023-05-12T11:32:16.375Z,14.33
2023-05-12T11:33:16.950Z,14.53
2023-05-12T11:34:16.544Z,14.60
2023-05-12T11:35:17.089Z,14.83
2023-05-12T11:36:16.652Z,14.95
2023-05-12T11:37:17.219Z,15.05
2023-05-12T11:38:16.787Z,15.15
2023-05-12T11:39:16.334Z,15.18
2023-05-12T11:40:16.954Z,15.19
2023-05-12T11:41:16.580Z,15.27
2023-05-12T11:42:18.843Z,15.32
2023-05-12T11:43:17.138Z,15.36
2023-05-12T11:44:16.725Z,15.52
2023-05-12T11:45:17.352Z,15.56
2023-05-12T11:46:17.058Z,15.02
2023-05-12T11:47:16.878Z,15.19
2023-05-12T11:48:16.796Z,15.35
2023-05-12T11:49:16.544Z,15.34
2023-05-12T11:50:17.118Z,15.43
2023-05-12T11:51:16.690Z,15.31
2023-05-12T11:52:16.672Z,15.10
2023-05-12T11:53:17.305Z,14.82
2023-05-12T11:54:16.907Z,14.84
2023-05-12T11:55:16.443Z,14.87
2023-05-12T11:56:17.009Z,14.87
2023-05-12T11:57:16.563Z,14.87
2023-05-12T11:58:17.110Z,14.90
2023-05-12T11:59:16.661Z,14.74
2023-05-12T12:00:17.242Z,14.53
2023-05-12T12:01:16.815Z,14.52
2023-05-12T12:02:16.602Z,14.62
2023-05-12T12:03:17.322Z,14.56
2023-05-12T12:04:17.245Z,14.65
2023-05-12T12:05:16.917Z,14.67
2023-05-12T12:06:16.488Z,14.59
2023-05-12T12:07:17.039Z,14.62
2023-05-12T12:08:16.676Z,14.59
2023-05-12T12:09:17.262Z,14.56
2023-05-12T12:10:16.872Z,14.56
2023-05-12T12:11:16.429Z,14.62
2023-05-12T12:12:16.519Z,14.59
2023-05-12T12:13:17.072Z,14.70
2023-05-12T12:14:16.647Z,14.66
2023-05-12T12:15:17.287Z,14.65
2023-05-12T12:16:16.903Z,14.67
2023-05-12T12:17:16.591Z,14.74
2023-05-12T12:18:17.134Z,14.73
2023-05-12T12:19:16.702Z,14.77
2023-05-12T12:20:17.310Z,14.87
2023-05-12T12:21:18.364Z,14.93
2023-05-12T12:22:16.590Z,14.94
2023-05-12T12:23:17.153Z,14.79
2023-05-12T12:24:16.726Z,14.72
2023-05-12T12:25:17.273Z,14.69
2023-05-12T12:26:16.837Z,14.73
2023-05-12T12:27:16.412Z,14.74
2023-05-12T12:28:16.964Z,14.66
2023-05-12T12:29:16.530Z,14.62
2023-05-12T12:30:17.177Z,14.72
2023-05-12T12:31:16.814Z,14.77
2023-05-12T12:32:16.462Z,14.88
2023-05-12T12:33:18.822Z,14.84
2023-05-12T12:34:17.159Z,14.82
2023-05-12T12:35:16.704Z,14.63
2023-05-12T12:36:17.311Z,14.79
2023-05-12T12:37:16.889Z,14.80
2023-05-12T12:38:16.541Z,14.77
2023-05-12T12:39:19.147Z,14.74
2023-05-12T12:40:16.589Z,14.76
2023-05-12T12:41:17.134Z,14.91
2023-05-12T12:42:17.153Z,14.87
2023-05-12T12:43:16.726Z,14.90
2023-05-12T12:44:16.869Z,14.91
2023-05-12T12:45:17.381Z,14.87
2023-05-12T12:46:17.151Z,14.97
2023-05-12T12:47:16.869Z,15.00
2023-05-12T12:48:16.734Z,14.90
2023-05-12T12:49:17.350Z,14.95
2023-05-12T12:50:16.916Z,14.90
2023-05-12T12:51:16.535Z,14.98
2023-05-12T12:52:16.553Z,14.94
2023-05-12T12:53:17.092Z,14.88
2023-05-12T12:54:16.628Z,14.97